Time;durP1;ratioP1;P1;durP2;ratioP2;P2;SDS_P1;SDS_P2;PMS_P1;PMS_P2;Temp;Humidity;BMP_temperature;BMP_pressure;BME280_temperature;BME280_humidity;BME280_pressure;Samples;Min_cycle;Max_cycle;Signal;HPM_P1;HPM_P2
2021/05/10 00:00:01;;;;;;;983.78;898.97;;;12.10;99.90;;;;;;5053578;28;20406;-72
2021/05/10 00:02:38;;;;;;;972.83;888.72;;;12.00;99.90;;;;;;5034339;28;20480;-72
2021/05/10 00:05:08;;;;;;;979.10;894.53;;;12.00;99.90;;;;;;5016750;28;20407;-72
2021/05/10 00:08:00;;;;;;;984.35;899.85;;;11.90;99.90;;;;;;5033833;28;20442;-72
2021/05/10 00:10:28;;;;;;;986.78;902.58;;;11.90;99.90;;;;;;5033468;28;20415;-73
2021/05/10 00:13:02;;;;;;;975.78;891.28;;;11.90;99.90;;;;;;5033423;28;20411;-74
2021/05/10 00:15:31;;;;;;;976.90;892.70;;;11.80;99.90;;;;;;5034077;28;20414;-72
2021/05/10 00:18:02;;;;;;;980.75;897.95;;;11.80;99.90;;;;;;5017542;28;20433;-72
2021/05/10 00:20:31;;;;;;;988.33;905.78;;;11.80;99.90;;;;;;5046431;28;20415;-72
2021/05/10 00:22:58;;;;;;;989.80;908.55;;;11.70;99.90;;;;;;5038984;28;20414;-72
2021/05/10 00:25:26;;;;;;;989.03;907.72;;;11.70;99.90;;;;;;5034872;28;20414;-73
2021/05/10 00:28:19;;;;;;;1004.22;923.95;;;11.70;99.90;;;;;;5034617;28;20493;-73
2021/05/10 00:30:47;;;;;;;1000.40;917.50;;;11.70;99.90;;;;;;5008773;28;20473;-73
2021/05/10 00:33:16;;;;;;;1009.35;926.60;;;11.80;99.90;;;;;;5053827;28;20463;-72
2021/05/10 00:35:44;;;;;;;1009.95;927.72;;;11.80;99.90;;;;;;5036446;28;20440;-73
2021/05/10 00:38:12;;;;;;;1010.17;933.50;;;11.80;99.90;;;;;;5054659;28;20402;-73
2021/05/10 00:40:40;;;;;;;645.13;511.13;;;11.80;99.90;;;;;;5055377;28;20214;-73
2021/05/10 00:43:08;;;;;;;930.42;848.38;;;11.80;99.90;;;;;;5036506;28;20413;-73
2021/05/10 00:45:36;;;;;;;961.60;878.20;;;11.80;99.90;;;;;;5030303;28;20422;-73
2021/05/10 00:48:05;;;;;;;975.95;891.65;;;11.80;99.90;;;;;;5032539;28;20820;-73
2021/05/10 00:50:34;;;;;;;990.92;906.17;;;11.70;99.90;;;;;;5034335;28;20911;-72
2021/05/10 00:53:01;;;;;;;988.85;903.75;;;11.70;99.90;;;;;;5016626;28;20411;-74
2021/05/10 00:55:29;;;;;;;980.70;896.00;;;11.80;99.90;;;;;;5033076;28;20762;-72
2021/05/10 00:58:02;;;;;;;986.85;902.05;;;11.80;99.90;;;;;;5000478;28;20418;-72
2021/05/10 01:00:32;;;;;;;980.03;895.42;;;11.60;99.90;;;;;;5036128;28;20413;-72
2021/05/10 01:03:00;;;;;;;972.67;888.08;;;11.60;99.90;;;;;;5036943;28;20413;-72
2021/05/10 01:05:28;;;;;;;974.75;889.95;;;11.60;99.90;;;;;;5051964;28;20409;-72
2021/05/10 01:07:56;;;;;;;972.20;887.70;;;11.50;99.90;;;;;;5053619;28;20417;-73
2021/05/10 01:10:25;;;;;;;969.13;884.72;;;11.50;99.90;;;;;;5035849;28;20461;-74
2021/05/10 01:12:54;;;;;;;976.43;891.67;;;11.50;99.90;;;;;;5053084;28;20421;-72
2021/05/10 01:15:25;;;;;;;635.13;460.37;;;11.50;99.90;;;;;;5053438;28;20442;-72
2021/05/10 01:17:53;;;;;;;899.85;818.65;;;11.50;99.90;;;;;;5052644;28;20933;-72
2021/05/10 01:20:23;;;;;;;941.10;858.60;;;11.50;99.90;;;;;;5019068;28;20444;-73
2021/05/10 01:22:53;;;;;;;950.53;867.58;;;11.50;99.90;;;;;;5035605;28;20421;-72
2021/05/10 01:25:23;;;;;;;958.80;875.60;;;11.50;99.90;;;;;;5051859;28;20523;-72
2021/05/10 01:27:51;;;;;;;944.47;861.30;;;11.40;99.90;;;;;;5053322;28;20417;-73
2021/05/10 01:30:21;;;;;;;954.50;871.20;;;11.40;99.90;;;;;;5050742;28;20425;-72
2021/05/10 01:32:50;;;;;;;952.20;869.00;;;11.40;99.90;;;;;;5035517;28;20405;-73
2021/05/10 01:35:21;;;;;;;949.95;866.75;;;11.40;99.90;;;;;;5052432;28;20417;-73
2021/05/10 01:37:49;;;;;;;950.97;867.88;;;11.40;99.90;;;;;;5053425;28;20401;-73
2021/05/10 01:40:19;;;;;;;943.15;860.25;;;11.30;99.90;;;;;;5053485;28;20416;-73
2021/05/10 01:42:47;;;;;;;940.05;857.45;;;11.30;99.90;;;;;;5053230;28;20473;-72
2021/05/10 01:45:15;;;;;;;951.65;868.55;;;11.40;99.90;;;;;;5034283;28;20425;-72
2021/05/10 01:47:43;;;;;;;948.72;865.45;;;11.40;99.90;;;;;;5056910;28;20451;-72
2021/05/10 01:50:16;;;;;;;957.85;874.70;;;11.40;99.90;;;;;;5039449;28;20416;-73
2021/05/10 01:52:45;;;;;;;958.93;875.63;;;11.30;99.90;;;;;;5038935;28;20554;-73
2021/05/10 01:55:13;;;;;;;962.90;879.30;;;11.40;99.90;;;;;;5056697;28;20413;-74
2021/05/10 01:57:47;;;;;;;963.67;880.28;;;11.50;99.90;;;;;;5056988;28;20444;-72
2021/05/10 02:00:17;;;;;;;967.20;883.50;;;11.50;99.90;;;;;;5039048;28;20885;-73
2021/05/10 02:03:12;;;;;;;962.92;879.35;;;11.60;99.90;;;;;;5056078;28;20428;-74
2021/05/10 02:05:40;;;;;;;969.40;885.90;;;11.60;99.90;;;;;;5055691;28;20519;-73
2021/05/10 02:08:09;;;;;;;962.23;878.90;;;11.60;99.90;;;;;;5056408;28;21002;-74
2021/05/10 02:10:45;;;;;;;963.00;879.42;;;11.60;99.90;;;;;;5056781;28;20429;-74
2021/05/10 02:13:16;;;;;;;954.80;871.60;;;11.60;99.90;;;;;;5039053;28;20401;-73
2021/05/10 02:15:46;;;;;;;974.00;890.17;;;11.60;99.90;;;;;;5056059;28;20402;-72
2021/05/10 02:18:17;;;;;;;983.10;898.92;;;11.70;99.90;;;;;;5057189;28;20877;-73
2021/05/10 02:20:45;;;;;;;986.58;902.17;;;11.90;99.90;;;;;;5039267;28;20991;-73
2021/05/10 02:23:14;;;;;;;980.47;896.28;;;12.00;99.90;;;;;;5056809;28;20421;-72
2021/05/10 02:26:07;;;;;;;992.28;907.58;;;12.00;99.90;;;;;;5038851;28;20501;-75
2021/05/10 02:28:38;;;;;;;993.65;908.65;;;12.00;99.90;;;;;;5022154;28;20463;-72
2021/05/10 02:31:09;;;;;;;998.03;913.03;;;12.00;99.90;;;;;;5037897;28;20841;-73
2021/05/10 02:33:36;;;;;;;990.17;905.67;;;12.10;99.90;;;;;;5038866;28;20780;-73
2021/05/10 02:36:05;;;;;;;1002.53;917.22;;;12.10;99.90;;;;;;5038433;28;20413;-73
2021/05/10 02:38:32;;;;;;;997.35;912.58;;;12.10;99.90;;;;;;5038638;28;20492;-73
2021/05/10 02:41:00;;;;;;;1000.25;914.95;;;12.10;99.90;;;;;;5021775;28;20901;-72
2021/05/10 02:43:28;;;;;;;997.60;912.80;;;12.10;99.90;;;;;;5054934;28;20901;-72
2021/05/10 02:45:58;;;;;;;1003.58;918.28;;;11.90;99.90;;;;;;5037462;28;20444;-72
2021/05/10 02:48:26;;;;;;;1004.85;919.55;;;11.90;99.90;;;;;;5038175;28;20405;-73
2021/05/10 02:50:54;;;;;;;998.45;913.55;;;11.90;99.90;;;;;;5054764;28;20397;-73
2021/05/10 02:53:21;;;;;;;997.83;913.13;;;12.00;99.90;;;;;;5038363;28;20415;-74
2021/05/10 02:56:16;;;;;;;1000.00;915.13;;;12.20;99.90;;;;;;5056008;28;20448;-72
2021/05/10 02:58:44;;;;;;;992.47;907.90;;;12.30;99.90;;;;;;5056050;28;20463;-73
2021/05/10 03:01:12;;;;;;;988.63;904.53;;;12.30;99.90;;;;;;5054546;28;20421;-73
2021/05/10 03:03:39;;;;;;;648.43;520.47;;;12.20;99.90;;;;;;5039083;28;20271;-74
2021/05/10 03:06:08;;;;;;;930.28;848.50;;;12.20;99.90;;;;;;5038196;28;20440;-72
2021/05/10 03:08:36;;;;;;;963.63;880.33;;;12.00;99.90;;;;;;5037849;28;20410;-75
2021/05/10 03:11:04;;;;;;;967.63;884.33;;;11.90;99.90;;;;;;5037782;28;20429;-73
2021/05/10 03:13:32;;;;;;;970.53;887.13;;;11.80;99.90;;;;;;5037897;28;20471;-73
2021/05/10 03:16:00;;;;;;;970.13;886.53;;;11.70;99.90;;;;;;5054749;28;20421;-73
2021/05/10 03:18:29;;;;;;;970.53;887.05;;;11.70;99.90;;;;;;5040431;28;20414;-72
2021/05/10 03:20:56;;;;;;;978.08;894.47;;;11.80;99.90;;;;;;5047636;28;20412;-73
2021/05/10 03:23:24;;;;;;;977.50;893.72;;;11.80;99.90;;;;;;5055689;28;20410;-75
2021/05/10 03:25:52;;;;;;;976.00;892.20;;;11.90;99.90;;;;;;5038065;28;20409;-73
2021/05/10 03:28:20;;;;;;;985.53;901.63;;;11.90;99.90;;;;;;5037408;28;20485;-73
2021/05/10 03:30:47;;;;;;;983.88;899.75;;;11.90;99.90;;;;;;5053893;28;20505;-73
2021/05/10 03:33:14;;;;;;;988.92;904.53;;;11.90;99.90;;;;;;5038044;28;20409;-72
2021/05/10 03:35:43;;;;;;;975.25;891.50;;;12.00;99.90;;;;;;5037463;28;20406;-72
2021/05/10 03:38:12;;;;;;;977.60;893.70;;;12.00;99.90;;;;;;5055207;28;20484;-73
2021/05/10 03:40:39;;;;;;;982.92;898.67;;;11.90;99.90;;;;;;5055411;28;20404;-73
2021/05/10 03:43:07;;;;;;;979.07;894.87;;;11.90;99.90;;;;;;5055536;28;20425;-73
2021/05/10 03:45:35;;;;;;;983.20;898.72;;;11.90;99.90;;;;;;5036304;28;22431;-74
2021/05/10 03:48:03;;;;;;;975.10;891.37;;;12.00;99.90;;;;;;5037902;28;20492;-72
2021/05/10 03:50:31;;;;;;;982.92;899.03;;;12.10;99.90;;;;;;5054556;28;20877;-72
2021/05/10 03:53:02;;;;;;;975.03;890.93;;;12.30;99.90;;;;;;5055325;28;20424;-73
2021/05/10 03:55:29;;;;;;;972.58;888.88;;;12.50;99.90;;;;;;5037430;28;20475;-72
2021/05/10 03:57:57;;;;;;;975.65;891.85;;;12.40;99.90;;;;;;5020988;28;20405;-72
2021/05/10 04:00:25;;;;;;;970.90;886.95;;;12.30;99.90;;;;;;5036496;28;20897;-71
2021/05/10 04:02:59;;;;;;;979.80;896.00;;;12.30;99.90;;;;;;5037218;28;20414;-73
2021/05/10 04:08:39;;;;;;;979.35;895.42;;;12.60;99.90;;;;;;5048914;28;20420;-75
2021/05/10 04:11:10;;;;;;;986.50;902.20;;;12.60;99.90;;;;;;5055081;28;20425;-72
2021/05/10 04:13:40;;;;;;;1002.13;917.03;;;12.80;99.90;;;;;;5037131;28;20417;-76
2021/05/10 04:16:08;;;;;;;1006.20;920.80;;;12.90;99.90;;;;;;5036168;28;20412;-75
2021/05/10 04:18:36;;;;;;;1002.28;917.28;;;12.90;99.90;;;;;;5037013;28;20468;-72
2021/05/10 04:21:04;;;;;;;1009.00;923.30;;;12.90;99.90;;;;;;5036954;28;20416;-73
2021/05/10 04:23:33;;;;;;;1017.78;932.40;;;13.00;99.90;;;;;;5054656;28;20463;-73
2021/05/10 04:26:00;;;;;;;1020.72;934.92;;;13.10;99.90;;;;;;5054353;28;20811;-72
2021/05/10 04:28:29;;;;;;;1022.20;936.20;;;13.30;99.90;;;;;;5054964;28;20397;-73
2021/05/10 04:30:57;;;;;;;1022.15;936.35;;;13.40;99.90;;;;;;5053268;28;20409;-73
2021/05/10 04:33:30;;;;;;;1024.32;938.65;;;13.40;99.90;;;;;;5036766;28;20849;-73
2021/05/10 04:36:00;;;;;;;1027.07;940.97;;;13.60;99.90;;;;;;5054655;28;20444;-73
2021/05/10 04:38:29;;;;;;;1032.18;946.28;;;13.70;99.90;;;;;;5054560;28;20789;-72
2021/05/10 04:41:01;;;;;;;1035.05;948.95;;;13.90;99.90;;;;;;5052792;28;20419;-73
2021/05/10 04:43:29;;;;;;;1032.45;946.45;;;13.90;99.90;;;;;;5054764;28;20425;-73
2021/05/10 04:45:59;;;;;;;1041.37;954.70;;;13.90;99.90;;;;;;5035283;28;20419;-72
2021/05/10 04:48:28;;;;;;;1038.70;952.10;;;13.90;99.90;;;;;;5037826;28;20406;-73
2021/05/10 04:50:56;;;;;;;1046.25;959.35;;;14.20;99.90;;;;;;5036681;28;20844;-73
2021/05/10 04:53:25;;;;;;;1048.40;961.55;;;14.40;99.90;;;;;;5039841;28;20451;-73
2021/05/10 04:55:57;;;;;;;1053.63;966.42;;;14.50;99.90;;;;;;5054569;28;20433;-72
2021/05/10 04:58:26;;;;;;;1054.85;967.75;;;14.40;99.90;;;;;;5052883;28;20444;-73
2021/05/10 05:00:55;;;;;;;1057.35;970.15;;;14.40;99.90;;;;;;5034948;28;20436;-73
2021/05/10 05:03:23;;;;;;;1055.55;968.05;;;14.40;99.90;;;;;;5053863;28;20417;-73
2021/05/10 05:05:51;;;;;;;1055.05;968.15;;;14.40;99.90;;;;;;5054437;28;20427;-72
2021/05/10 05:08:19;;;;;;;1066.40;978.80;;;14.50;99.90;;;;;;5054240;28;20769;-73
2021/05/10 05:10:47;;;;;;;1068.77;980.93;;;14.70;99.90;;;;;;5036607;28;20461;-72
2021/05/10 05:13:22;;;;;;;1072.28;984.30;;;15.20;99.90;;;;;;5037603;28;20955;-74
2021/05/10 05:15:50;;;;;;;1076.70;988.25;;;15.50;99.90;;;;;;5054350;28;20955;-72
2021/05/10 05:18:18;;;;;;;1088.50;999.90;;;15.90;99.90;;;;;;5037064;28;20750;-72
2021/05/10 05:20:46;;;;;;;1096.70;999.90;;;16.20;99.90;;;;;;5019969;28;20393;-72
2021/05/10 05:23:19;;;;;;;1109.95;999.90;;;16.30;99.90;;;;;;5037479;28;20885;-72
2021/05/10 05:25:53;;;;;;;1113.97;999.90;;;16.50;99.90;;;;;;5054955;28;20842;-72
2021/05/10 05:28:21;;;;;;;1122.07;999.90;;;16.60;99.90;;;;;;5038167;28;20913;-73
2021/05/10 05:30:48;;;;;;;1119.60;999.90;;;16.70;99.90;;;;;;5053467;28;20490;-71
2021/05/10 05:33:17;;;;;;;1123.83;999.90;;;16.80;99.90;;;;;;5019707;28;20414;-73
2021/05/10 05:35:44;;;;;;;1134.60;999.90;;;17.00;99.70;;;;;;5036325;28;20816;-73
2021/05/10 05:38:12;;;;;;;1140.28;999.90;;;17.30;99.10;;;;;;5057731;28;20463;-73
2021/05/10 05:40:41;;;;;;;1139.13;999.90;;;17.40;98.40;;;;;;5070293;28;20524;-72
2021/05/10 05:43:09;;;;;;;1138.83;999.90;;;17.70;97.00;;;;;;5067367;28;20429;-74
2021/05/10 05:45:38;;;;;;;1135.00;999.90;;;17.90;96.50;;;;;;5063148;28;20398;-74
2021/05/10 05:48:07;;;;;;;1157.30;999.90;;;18.10;96.10;;;;;;5068126;28;20405;-71
2021/05/10 05:50:36;;;;;;;1159.10;999.90;;;18.40;95.60;;;;;;5068336;28;20444;-74
2021/05/10 05:53:05;;;;;;;1160.80;999.90;;;18.70;95.00;;;;;;5034608;28;20430;-72
2021/05/10 05:55:32;;;;;;;1175.00;999.90;;;18.80;94.60;;;;;;5069053;28;20409;-73
2021/05/10 05:58:00;;;;;;;;;;;18.90;94.10;;;;;;5068152;28;20409;-73
2021/05/10 06:00:29;;;;;;;1182.03;999.90;;;19.00;94.10;;;;;;5051379;28;20396;-73
2021/05/10 06:02:56;;;;;;;1182.22;999.90;;;19.10;93.20;;;;;;5067776;28;20428;-73
2021/05/10 06:05:24;;;;;;;1192.35;999.90;;;19.50;93.50;;;;;;5045860;28;20851;-73
2021/05/10 06:07:58;;;;;;;1187.13;999.90;;;19.60;92.30;;;;;;5041048;28;20417;-72
2021/05/10 06:10:28;;;;;;;1195.00;999.90;;;19.80;92.30;;;;;;5057464;28;20421;-73
2021/05/10 06:12:56;;;;;;;1203.35;999.90;;;20.00;91.50;;;;;;5054909;28;20405;-73
2021/05/10 06:15:24;;;;;;;1206.53;999.90;;;20.20;91.30;;;;;;5055318;28;20406;-73
2021/05/10 06:17:52;;;;;;;1209.53;999.90;;;20.40;91.20;;;;;;5055508;28;20712;-73
2021/05/10 06:20:19;;;;;;;1201.10;999.90;;;20.80;91.10;;;;;;5038393;28;20405;-73
2021/05/10 06:22:49;;;;;;;1201.32;999.90;;;21.00;89.50;;;;;;5055197;28;20487;-73
2021/05/10 06:25:18;;;;;;;1257.80;999.90;;;21.40;87.40;;;;;;5055144;28;20635;-74
2021/05/10 06:27:46;;;;;;;1248.03;999.90;;;22.00;85.00;;;;;;5036492;28;20405;-75
2021/05/10 06:30:15;;;;;;;1250.07;999.90;;;23.10;80.70;;;;;;5055094;28;20470;-73
2021/05/10 06:32:44;;;;;;;1251.13;999.90;;;23.20;76.00;;;;;;5040109;28;20409;-73
2021/05/10 06:35:18;;;;;;;1260.95;999.90;;;23.90;72.90;;;;;;5058385;28;20410;-73
2021/05/10 06:37:46;;;;;;;1273.03;999.90;;;24.60;69.40;;;;;;5059126;28;20414;-73
2021/05/10 06:43:08;;;;;;;1298.30;999.90;;;26.10;59.20;;;;;;5058339;28;20414;-73
2021/05/10 06:45:36;;;;;;;1310.60;999.90;;;27.50;57.10;;;;;;5055916;28;20742;-74
2021/05/10 06:48:04;;;;;;;1319.18;999.90;;;28.40;53.40;;;;;;5040460;28;20406;-73
2021/05/10 06:50:32;;;;;;;1317.38;999.90;;;29.30;51.60;;;;;;5057547;28;20402;-73
2021/05/10 06:52:59;;;;;;;1328.53;999.90;;;29.60;48.90;;;;;;5057914;28;20773;-75
2021/05/10 06:55:27;;;;;;;1342.78;999.90;;;29.80;46.10;;;;;;5057704;28;20467;-73
2021/05/10 06:57:55;;;;;;;1341.47;999.90;;;30.60;46.10;;;;;;5057218;28;20416;-73
2021/05/10 07:00:23;;;;;;;1349.90;999.90;;;30.20;43.10;;;;;;5055328;28;20420;-74
2021/05/10 07:02:54;;;;;;;1364.63;999.90;;;29.60;44.60;;;;;;5037959;28;20761;-74
2021/05/10 07:05:23;;;;;;;1352.45;999.90;;;29.70;44.80;;;;;;5055568;28;20425;-74
2021/05/10 07:08:15;;;;;;;;;;;30.60;43.70;;;;;;5038663;28;20493;-74
2021/05/10 07:10:45;;;;;;;;;;;28.40;43.40;;;;;;5056311;28;19920;-74
2021/05/10 07:13:13;;;;;;;1383.00;999.90;;;30.10;43.80;;;;;;5055135;28;20496;-76
2021/05/10 07:15:42;;;;;;;1378.97;999.90;;;30.80;41.90;;;;;;5035328;28;20439;-74
2021/05/10 07:18:12;;;;;;;1406.28;999.90;;;31.70;42.70;;;;;;5036425;28;20456;-74
2021/05/10 07:20:42;;;;;;;1403.93;999.90;;;32.60;39.80;;;;;;5054289;28;20442;-75
2021/05/10 07:23:11;;;;;;;1410.50;999.90;;;31.60;38.80;;;;;;5036039;28;20452;-73
2021/05/10 07:25:41;;;;;;;1406.95;999.90;;;33.00;40.00;;;;;;5036044;28;20772;-75
2021/05/10 07:28:35;;;;;;;1401.28;999.90;;;32.00;39.20;;;;;;5053861;28;20468;-73
2021/05/10 07:31:08;;;;;;;1403.80;999.90;;;30.40;41.30;;;;;;5034837;28;20734;-75
2021/05/10 07:33:35;;;;;;;1393.50;999.90;;;29.80;41.80;;;;;;5036238;28;20410;-73
2021/05/10 07:36:04;;;;;;;1389.55;999.90;;;29.60;42.70;;;;;;5019136;28;20405;-73
2021/05/10 07:38:31;;;;;;;1394.32;999.90;;;30.00;41.70;;;;;;5052443;28;20418;-76
2021/05/10 07:40:59;;;;;;;1397.85;999.90;;;30.00;42.00;;;;;;5019158;28;20460;-73
2021/05/10 07:43:26;;;;;;;1393.95;999.90;;;30.80;42.20;;;;;;5034589;28;20411;-74
2021/05/10 07:45:54;;;;;;;1374.43;999.90;;;31.50;41.60;;;;;;5034938;28;20405;-74
2021/05/10 07:48:22;;;;;;;1399.63;999.90;;;31.50;39.80;;;;;;5053552;28;20935;-73
2021/05/10 07:50:50;;;;;;;1400.90;999.90;;;30.90;39.50;;;;;;5035555;28;20413;-75
2021/05/10 07:53:20;;;;;;;1408.40;999.90;;;30.80;40.40;;;;;;5053523;28;20490;-72
2021/05/10 07:55:49;;;;;;;1396.75;999.90;;;33.60;39.20;;;;;;5052321;28;20412;-72
2021/05/10 07:58:44;;;;;;;1387.87;999.90;;;34.00;36.40;;;;;;5051777;28;20422;-72
2021/05/10 08:01:11;;;;;;;1395.10;999.90;;;33.60;37.00;;;;;;5052190;28;20414;-72
2021/05/10 08:03:40;;;;;;;1283.07;999.90;;;35.40;35.60;;;;;;5053089;28;20221;-72
2021/05/10 08:06:08;;;;;;;1273.83;999.90;;;36.00;32.50;;;;;;5053171;28;20441;-71
2021/05/10 08:08:36;;;;;;;1285.03;999.90;;;35.10;32.50;;;;;;5036951;28;20488;-73
2021/05/10 08:11:05;;;;;;;1273.10;999.90;;;34.30;32.80;;;;;;5036214;28;20478;-71
2021/05/10 08:13:32;;;;;;;1271.80;999.90;;;34.10;34.30;;;;;;5036410;28;20433;-68
2021/05/10 08:16:00;;;;;;;1399.85;999.90;;;36.10;32.60;;;;;;5052706;28;20764;-68
2021/05/10 08:18:28;;;;;;;;;;;34.30;31.30;;;;;;5055224;28;20068;-67
2021/05/10 08:20:57;;;;;;;;;;;35.30;33.20;;;;;;5055083;28;20008;-67
2021/05/10 08:23:26;;;;;;;;;;;34.00;34.00;;;;;;5037129;28;20375;-67
2021/05/10 08:25:53;;;;;;;;;;;34.00;32.30;;;;;;5055010;28;19921;-68
2021/05/10 08:28:22;;;;;;;;;;;32.90;33.50;;;;;;5055106;28;20447;-66
2021/05/10 08:30:50;;;;;;;;;;;34.20;35.00;;;;;;5054011;28;20321;-67
2021/05/10 08:33:17;;;;;;;;;;;34.30;31.40;;;;;;5053803;28;19963;-64
2021/05/10 08:35:45;;;;;;;;;;;33.40;34.10;;;;;;5054886;28;19924;-67
2021/05/10 08:38:13;;;;;;;;;;;34.60;33.60;;;;;;5053493;28;19921;-66
2021/05/10 08:40:41;;;;;;;1385.70;999.90;;;36.00;31.00;;;;;;5052817;28;20446;-67
2021/05/10 08:43:21;;;;;;;1397.35;999.90;;;32.80;32.90;;;;;;5051838;28;20950;-70
2021/05/10 08:45:54;;;;;;;1278.70;999.90;;;31.80;32.80;;;;;;5053389;28;20647;-70
2021/05/10 08:48:22;;;;;;;1279.97;999.90;;;31.90;34.90;;;;;;5054171;28;20434;-70
2021/05/10 08:50:51;;;;;;;1290.03;999.90;;;33.70;32.60;;;;;;5054057;28;20453;-72
2021/05/10 08:53:32;;;;;;;1285.47;999.90;;;34.30;31.50;;;;;;5054024;28;20978;-68
2021/05/10 08:56:00;;;;;;;1305.00;999.90;;;34.80;30.40;;;;;;5035867;28;20442;-70
2021/05/10 08:58:28;;;;;;;1312.30;999.90;;;37.00;29.30;;;;;;5054087;28;20616;-70
2021/05/10 09:00:59;;;;;;;1296.33;999.90;;;35.60;28.90;;;;;;5045004;28;20497;-70
2021/05/10 09:03:33;;;;;;;1291.03;999.90;;;35.60;30.80;;;;;;5034068;28;20489;-69
2021/05/10 09:06:01;;;;;;;1299.23;999.90;;;35.70;28.50;;;;;;5034356;28;20450;-72
2021/05/10 09:08:40;;;;;;;1305.93;999.90;;;34.90;31.10;;;;;;5034344;28;20423;-69
2021/05/10 09:11:10;;;;;;;1293.00;999.90;;;37.10;29.00;;;;;;5033786;28;20462;-70
2021/05/10 09:13:38;;;;;;;;;;;35.00;28.70;;;;;;5016894;28;20292;-68
2021/05/10 09:16:05;;;;;;;1263.70;999.90;;;32.10;33.30;;;;;;5013071;28;20218;-68
2021/05/10 09:18:34;;;;;;;1395.85;999.90;;;32.90;33.40;;;;;;5034657;28;20413;-71
2021/05/10 09:21:12;;;;;;;1420.23;999.90;;;34.70;32.40;;;;;;5052567;28;20420;-69
2021/05/10 09:24:01;;;;;;;1431.28;999.90;;;37.10;30.10;;;;;;5034690;28;20470;-69
2021/05/10 09:26:30;;;;;;;1449.18;999.90;;;39.50;27.60;;;;;;5052275;28;20401;-68
2021/05/10 09:28:58;;;;;;;1449.22;999.90;;;38.30;27.30;;;;;;5051074;28;20968;-69
2021/05/10 09:31:27;;;;;;;1457.80;999.90;;;38.10;28.20;;;;;;5022333;28;20415;-69
2021/05/10 09:33:55;;;;;;;1462.90;999.90;;;38.50;28.00;;;;;;5032216;28;20615;-69
2021/05/10 09:36:33;;;;;;;1440.15;999.90;;;40.90;26.00;;;;;;5014613;28;20411;-69
2021/05/10 09:39:05;;;;;;;1415.45;999.90;;;42.80;25.00;;;;;;5031016;28;20879;-69
2021/05/10 09:41:34;;;;;;;1428.90;999.90;;;42.40;24.30;;;;;;5032440;28;20485;-69
2021/05/10 09:44:05;;;;;;;1409.63;999.90;;;39.70;25.70;;;;;;5032403;28;20421;-69
2021/05/10 09:46:39;;;;;;;1404.40;999.90;;;39.20;26.90;;;;;;5031296;28;20764;-69
2021/05/10 09:49:07;;;;;;;1413.68;999.90;;;38.80;26.90;;;;;;5031118;28;20422;-68
2021/05/10 09:51:35;;;;;;;1384.20;999.90;;;36.00;28.10;;;;;;5032337;28;20975;-68
2021/05/10 09:54:11;;;;;;;1340.13;999.90;;;35.60;29.30;;;;;;5032089;28;20510;-71
2021/05/10 09:56:38;;;;;;;1375.65;999.90;;;35.00;30.20;;;;;;5032059;28;20450;-69
2021/05/10 09:59:11;;;;;;;1386.68;999.90;;;35.60;29.90;;;;;;5014554;28;20413;-69
2021/05/10 10:01:41;;;;;;;1374.82;999.90;;;35.10;30.10;;;;;;5031438;28;20422;-69
2021/05/10 10:07:01;;;;;;;1375.35;999.90;;;33.50;31.80;;;;;;5033362;28;20794;-69
2021/05/10 10:09:34;;;;;;;1366.25;999.90;;;32.30;32.60;;;;;;5035758;28;20604;-68
2021/05/10 10:12:01;;;;;;;1289.00;999.90;;;31.70;35.10;;;;;;5035809;28;20430;-69
2021/05/10 10:14:28;;;;;;;;;;;34.50;32.50;;;;;;5017311;28;20411;-70
2021/05/10 10:17:06;;;;;;;1297.72;999.90;;;37.10;29.40;;;;;;5035156;28;20958;-69
2021/05/10 10:19:33;;;;;;;1290.03;999.90;;;38.20;27.50;;;;;;5036260;28;20851;-69
2021/05/10 10:22:01;;;;;;;;;;;35.50;29.80;;;;;;5034431;28;20413;-68
2021/05/10 10:24:28;;;;;;;;;;;36.70;29.20;;;;;;5034764;28;20407;-69
2021/05/10 10:27:16;;;;;;;;;;;35.20;29.10;;;;;;5033718;28;20383;-68
2021/05/10 10:29:45;;;;;;;;;;;35.10;30.40;;;;;;5015411;28;25056;-69
2021/05/10 10:32:16;;;;;;;;;;;33.30;31.70;;;;;;5028520;28;20225;-68
2021/05/10 10:34:46;;;;;;;;;;;32.30;34.40;;;;;;5032394;28;25069;-68
2021/05/10 10:37:14;;;;;;;;;;;32.90;33.70;;;;;;5014914;28;25085;-68
2021/05/10 10:39:49;;;;;;;;;;;34.00;32.00;;;;;;5050962;28;25068;-69
2021/05/10 10:42:24;;;;;;;;;;;35.20;32.30;;;;;;5034922;28;25148;-68
2021/05/10 10:44:56;;;;;;;;;;;34.80;32.10;;;;;;5035910;28;25109;-69
2021/05/10 10:47:44;;;;;;;;;;;34.90;32.10;;;;;;5034568;28;25142;-71
2021/05/10 10:50:11;;;;;;;;;;;37.30;29.50;;;;;;5034041;28;25078;-72
2021/05/10 10:52:48;;;;;;;;;;;36.20;27.00;;;;;;5002119;28;19928;-69
2021/05/10 10:55:17;;;;;;;;;;;35.70;29.20;;;;;;5036208;28;19992;-69
2021/05/10 10:57:49;;;;;;;;;;;37.50;29.10;;;;;;5036232;28;19921;-69
2021/05/10 11:00:17;;;;;;;;;;;39.00;27.40;;;;;;5034064;28;20377;-71
2021/05/10 11:02:46;;;;;;;;;;;38.00;27.20;;;;;;5036275;28;20346;-69
2021/05/10 11:05:16;;;;;;;;;;;37.00;28.60;;;;;;5034942;28;25101;-69
2021/05/10 11:07:54;;;;;;;;;;;36.20;29.60;;;;;;5001917;28;19974;-69
2021/05/10 11:10:41;;;;;;;1372.00;999.90;;;35.50;30.10;;;;;;5034667;28;20423;-68
2021/05/10 11:13:10;;;;;;;1360.38;999.90;;;34.90;31.00;;;;;;5017046;28;20540;-72
2021/05/10 11:15:50;;;;;;;1356.65;999.90;;;34.50;32.30;;;;;;5038335;28;20958;-67
2021/05/10 11:18:36;;;;;;;1368.13;999.90;;;33.60;33.60;;;;;;5036443;28;20460;-71
2021/05/10 11:21:05;;;;;;;1266.97;999.90;;;33.70;32.80;;;;;;5054076;28;20453;-69
2021/05/10 11:23:35;;;;;;;1377.97;999.90;;;32.80;34.00;;;;;;5036953;28;20410;-69
2021/05/10 11:26:05;;;;;;;1379.75;999.90;;;32.10;34.90;;;;;;5054083;28;20504;-68
2021/05/10 11:28:46;;;;;;;1372.13;999.90;;;31.60;36.00;;;;;;5054293;28;20402;-69
2021/05/10 11:31:30;;;;;;;1382.82;999.90;;;31.20;37.00;;;;;;5052043;28;20410;-71
2021/05/10 11:34:15;;;;;;;1368.57;999.90;;;31.20;37.50;;;;;;5054086;28;20722;-69
2021/05/10 11:36:50;;;;;;;1364.80;999.90;;;30.60;37.60;;;;;;5054301;28;20421;-70
2021/05/10 11:39:23;;;;;;;1367.27;999.90;;;30.10;37.80;;;;;;5054336;28;20893;-69
2021/05/10 11:41:56;;;;;;;1380.63;999.90;;;29.80;38.50;;;;;;5036177;28;20492;-70
2021/05/10 11:44:25;;;;;;;1332.45;999.90;;;29.80;39.30;;;;;;5036248;28;20413;-69
2021/05/10 11:46:54;;;;;;;1351.38;999.90;;;29.70;39.40;;;;;;5018696;28;20413;-69
2021/05/10 11:49:28;;;;;;;1372.70;999.90;;;29.30;40.30;;;;;;5053855;28;20849;-69
2021/05/10 11:51:58;;;;;;;1370.68;999.90;;;29.70;39.70;;;;;;5054075;28;20414;-67
2021/05/10 11:54:28;;;;;;;1386.10;999.90;;;30.20;39.20;;;;;;5053943;28;20408;-71
2021/05/10 11:56:59;;;;;;;1343.75;999.90;;;31.10;37.70;;;;;;5053641;28;20893;-68
2021/05/10 12:02:22;;;;;;;1371.43;999.90;;;30.90;37.60;;;;;;5047488;28;20413;-67
2021/05/10 12:04:53;;;;;;;1360.93;999.90;;;31.00;38.00;;;;;;5054035;28;20429;-68
2021/05/10 12:07:22;;;;;;;1377.77;999.90;;;30.70;38.10;;;;;;5036217;28;20412;-70
2021/05/10 12:09:53;;;;;;;1376.07;999.90;;;30.60;38.40;;;;;;5053390;28;20483;-67
2021/05/10 12:12:30;;;;;;;1359.63;999.90;;;30.90;38.10;;;;;;5053570;28;20803;-68
2021/05/10 12:15:08;;;;;;;1370.28;999.90;;;30.70;38.40;;;;;;5053430;28;20420;-68
2021/05/10 12:17:40;;;;;;;1375.80;999.90;;;31.00;39.20;;;;;;5052931;28;20479;-68
2021/05/10 12:23:31;;;;;;;1368.60;999.90;;;30.70;38.70;;;;;;5052086;28;20405;-67
2021/05/10 12:25:58;;;;;;;1370.15;999.90;;;31.00;39.10;;;;;;5053413;28;21100;-70
2021/05/10 12:28:27;;;;;;;1362.90;999.90;;;31.30;38.20;;;;;;5053233;28;20412;-68
2021/05/10 12:30:57;;;;;;;1356.65;999.90;;;30.50;38.90;;;;;;5051855;28;20948;-67
2021/05/10 12:33:25;;;;;;;1346.82;999.90;;;30.10;40.20;;;;;;5035172;28;20776;-68
2021/05/10 12:35:54;;;;;;;1366.93;999.90;;;30.20;39.80;;;;;;5053144;28;21120;-67
2021/05/10 12:38:27;;;;;;;1373.80;999.90;;;29.90;40.10;;;;;;5053012;28;20409;-68
2021/05/10 12:40:55;;;;;;;1366.30;999.90;;;29.90;40.20;;;;;;5052863;28;20410;-67
2021/05/10 12:43:23;;;;;;;1374.50;999.90;;;30.10;40.60;;;;;;5052786;28;20409;-67
2021/05/10 12:46:02;;;;;;;1369.95;999.90;;;29.80;42.60;;;;;;5051875;28;20425;-67